Terminal Aerodrome Forecast
Issued by NWS

Home | Current Version | Previous Version | Text Only | Print | Product List | Glossary On
Versions: 1 2 3 4 5 6 7 8 9 10 11 12 13 14 15 16
000
FTUS41 KBGM 180533
TAFITH
TAF
KITH 180533Z 1806/1906 14007KT P6SM BKN250
     FM181100 14007KT P6SM BKN250 WS020/20040KT
     FM181400 17012G20KT P6SM -RA OVC070
     FM181600 17012G22KT P6SM -RA OVC025
     FM181900 17012G22KT 3SM -RA BR OVC015=

USA.gov is the U.S. government's official web portal to all federal, state and local government web resources and services.